Forside
METAR-TAF:

METAR-TAF

Lufthavne :

New River Valley Airport

Dublin, Virginia, USA

Breddekreds: 37-08N, længdekreds: 080-41W, højde: 642 m

Aktuelle vejr

Denne rapport blev lavet for 15 minutter siden, kl. 13:55 UTC
Vind 4 kt fra nordnordøst
Temperatur 16°C
Fugtighed 72%
Tryk 1011 hPa
Sigt: 16.1 km
Brudte skyer i en højde af 3500 ft
Overskyet i en højde af 4200 ft

METAR: KPSK 081355Z AUTO 02004KT 10SM BKN035 OVC042 16/11 A2985 RMK AO2 LTG DSNT NW T01620113

Tid: 10:10 (14:10 UTC)


TAF: fraværende

Vejrobservationer og prognoser fra mere end 4000 lufthavne (METAR og TAF).

De gule og røde prikker repræsenterer de meteorologiske stationer.

Flyt musen over at se navnet på stationen.

Så klik over at se vejr observationer og prognoser.

At skifte det kort: Klik på de grønne knapper med et sort kors for at zoome ind; på den grønne knap med en bindestreg for at zoome ud; eller på de grønne pile for tilstødende kort.


METAR-TAF: